Time;durP1;ratioP1;P1;durP2;ratioP2;P2;SDS_P1;SDS_P2;PMS_P1;PMS_P2;Temp;Humidity;BMP_temperature;BMP_pressure;BME280_temperature;BME280_humidity;BME280_pressure;Samples;Min_cycle;Max_cycle;Signal;HPM_P1;HPM_P2
2024/01/25 00:03:21;;;;;;;6.40;1.00;;;9.50;95.60;;;7.85;66.77;100282.28;10212716;28;96530;-86
2024/01/25 00:08:25;;;;;;;7.90;1.20;;;9.50;95.40;;;7.90;66.11;100292.41;10213176;28;97727;-85
2024/01/25 00:13:28;;;;;;;8.77;1.20;;;9.50;95.30;;;7.94;65.89;100283.22;10212273;28;96565;-85
2024/01/25 00:18:32;;;;;;;5.43;1.17;;;9.60;95.10;;;7.93;65.87;100269.16;10238417;28;97993;-85
2024/01/25 00:23:36;;;;;;;3.50;0.73;;;9.60;95.00;;;7.87;65.87;100280.31;10244481;28;96610;-87
2024/01/25 00:28:39;;;;;;;4.10;0.63;;;9.60;94.80;;;7.88;65.54;100279.34;10226436;28;97285;-85
2024/01/25 00:33:43;;;;;;;4.70;1.03;;;9.60;94.80;;;7.88;65.39;100286.44;10228187;28;96424;-85
2024/01/25 00:38:48;;;;;;;8.80;1.00;;;9.50;94.70;;;7.81;65.63;100290.69;10211106;28;96663;-85
2024/01/25 00:43:52;;;;;;;5.60;0.87;;;9.50;94.70;;;7.79;65.71;100306.66;10199008;28;98030;-86
2024/01/25 00:48:56;;;;;;;6.30;1.10;;;9.50;94.60;;;7.73;65.70;100300.16;10250020;28;96642;-87
2024/01/25 00:54:00;;;;;;;2.40;1.00;;;9.40;94.90;;;7.63;66.59;100304.69;10252790;28;97622;-86
2024/01/25 00:59:03;;;;;;;8.83;1.30;;;9.30;94.90;;;7.55;67.00;100303.72;10226760;28;96563;-86
2024/01/25 01:04:08;;;;;;;9.90;0.97;;;9.20;95.00;;;7.48;67.26;100309.59;10242634;28;96526;-87
2024/01/25 01:09:11;;;;;;;6.03;1.20;;;9.20;95.10;;;7.46;67.25;100300.16;10211430;28;96744;-85
2024/01/25 01:14:15;;;;;;;7.10;1.53;;;9.10;95.30;;;7.37;67.60;100290.44;10211452;28;96844;-86
2024/01/25 01:19:18;;;;;;;6.83;1.53;;;9.00;95.10;;;7.36;67.63;100294.06;10209573;28;96686;-84
2024/01/25 01:24:22;;;;;;;7.87;1.20;;;9.00;95.10;;;7.31;67.66;100276.00;10211966;28;96515;-84
2024/01/25 01:29:26;;;;;;;5.97;1.10;;;9.00;95.00;;;7.29;67.73;100283.25;10210431;28;96514;-84
2024/01/25 01:34:30;;;;;;;3.73;1.10;;;8.90;95.10;;;7.29;67.83;100280.59;10210853;28;96973;-85
2024/01/25 01:39:34;;;;;;;6.57;1.20;;;9.00;95.10;;;7.31;68.28;100268.06;10208826;28;96497;-84
2024/01/25 01:44:39;;;;;;;7.27;1.53;;;9.00;95.30;;;7.31;68.28;100265.41;10210855;28;96594;-84
2024/01/25 01:49:43;;;;;;;3.23;0.83;;;9.00;95.30;;;7.30;68.25;100271.69;10261734;28;96644;-85
2024/01/25 01:54:48;;;;;;;9.07;1.30;;;9.00;95.20;;;7.33;67.76;100275.88;10209460;28;96548;-85
2024/01/25 01:59:52;;;;;;;8.70;0.93;;;9.00;95.00;;;7.38;67.33;100279.75;10181735;28;96443;-84
2024/01/25 02:04:55;;;;;;;8.43;1.50;;;9.00;95.00;;;7.32;67.64;100282.13;10203773;28;96827;-84
2024/01/25 02:09:59;;;;;;;3.90;1.10;;;9.00;95.00;;;7.31;67.71;100270.69;10209171;28;96630;-85
2024/01/25 02:15:03;;;;;;;4.87;1.23;;;9.00;95.00;;;7.29;67.42;100277.13;10210571;28;97967;-86
2024/01/25 02:20:08;;;;;;;3.50;0.93;;;8.90;94.80;;;7.25;66.86;100268.63;10225740;28;97147;-84
2024/01/25 02:25:12;;;;;;;3.97;0.60;;;8.90;94.50;;;7.32;66.60;100274.22;10224191;28;96628;-84
2024/01/25 02:30:15;;;;;;;6.13;1.30;;;9.00;94.50;;;7.35;66.00;100265.97;10224437;28;96931;-84
2024/01/25 02:35:19;;;;;;;7.10;1.07;;;9.00;94.40;;;7.40;65.81;100263.72;10242307;28;96790;-84
2024/01/25 02:40:22;;;;;;;4.10;1.27;;;9.00;94.10;;;7.46;65.45;100252.56;10212530;28;96641;-84
2024/01/25 02:45:26;;;;;;;7.07;2.07;;;9.10;94.10;;;7.43;65.55;100268.72;10216460;28;96520;-86
2024/01/25 02:50:30;;;;;;;4.73;1.27;;;9.10;94.10;;;7.47;65.28;100264.81;10230639;28;96437;-85
2024/01/25 02:55:33;;;;;;;2.83;0.90;;;9.10;94.00;;;7.43;65.54;100263.41;10246895;28;96440;-85
2024/01/25 03:00:37;;;;;;;6.03;1.13;;;9.10;94.10;;;7.42;66.28;100278.44;10219161;28;96568;-85
2024/01/25 03:05:41;;;;;;;7.17;1.17;;;9.10;94.20;;;7.40;66.42;100246.06;10224416;28;96579;-84
2024/01/25 03:10:49;;;;;;;6.90;0.97;;;9.10;94.30;;;7.41;66.96;100241.59;10215488;28;97160;-85
2024/01/25 03:15:53;;;;;;;9.77;1.40;;;9.10;94.50;;;7.43;68.26;100258.13;10229145;28;96786;-84
2024/01/25 03:20:56;;;;;;;4.67;0.97;;;9.10;95.00;;;7.47;68.93;100276.22;10228834;28;96571;-83
2024/01/25 03:26:02;;;;;;;2.47;0.90;;;9.10;95.30;;;7.49;69.19;100270.75;10214091;28;96945;-85
2024/01/25 03:31:06;;;;;;;6.47;1.50;;;9.10;95.30;;;7.45;69.22;100264.13;10212528;28;96930;-84
2024/01/25 03:36:13;;;;;;;5.70;1.00;;;9.10;95.20;;;7.44;70.01;100280.97;10236797;28;96753;-83
2024/01/25 03:41:17;;;;;;;5.40;0.97;;;9.10;95.50;;;7.44;70.41;100276.50;10231231;28;96664;-83
2024/01/25 03:46:20;;;;;;;6.63;1.03;;;9.10;95.70;;;7.41;71.16;100274.16;10214006;28;96497;-84
2024/01/25 03:51:24;;;;;;;4.97;1.10;;;9.00;95.90;;;7.47;70.54;100276.22;10214453;28;96396;-84
2024/01/25 03:56:28;;;;;;;5.67;1.10;;;9.10;95.80;;;7.47;70.91;100264.81;10229469;28;98199;-84
2024/01/25 04:01:31;;;;;;;4.17;1.00;;;9.10;95.80;;;7.44;70.83;100286.25;10229589;28;96537;-85
2024/01/25 04:06:35;;;;;;;5.77;1.10;;;9.10;95.80;;;7.41;70.87;100241.59;10228402;28;96555;-83
2024/01/25 04:11:39;;;;;;;8.20;1.10;;;9.10;95.80;;;7.38;71.08;100265.69;10217978;28;96573;-84
2024/01/25 04:16:43;;;;;;;5.50;1.40;;;9.00;95.80;;;7.39;69.72;100259.41;10225890;28;96983;-85
2024/01/25 04:21:46;;;;;;;5.17;0.83;;;9.00;95.40;;;7.36;69.25;100252.59;10247886;28;96520;-85
2024/01/25 04:26:49;;;;;;;7.27;0.80;;;9.00;95.40;;;7.34;69.03;100259.03;10228139;28;96779;-86
2024/01/25 04:31:53;;;;;;;5.70;1.17;;;9.00;95.00;;;7.32;68.35;100256.53;10241555;28;96534;-85
2024/01/25 04:36:56;;;;;;;7.43;0.97;;;9.00;94.80;;;7.30;68.32;100263.75;10252986;28;96660;-85
2024/01/25 04:42:00;;;;;;;7.57;1.20;;;8.90;94.80;;;7.29;68.42;100274.47;10213088;28;96475;-84
2024/01/25 04:47:04;;;;;;;6.23;1.03;;;8.90;94.90;;;7.24;69.00;100273.09;10212829;28;96503;-85
2024/01/25 04:52:07;;;;;;;8.70;1.53;;;8.90;95.00;;;7.22;68.90;100290.91;10202267;28;96489;-85
2024/01/25 04:57:11;;;;;;;3.53;0.80;;;8.90;95.10;;;7.18;69.49;100275.47;10211809;28;96530;-84
2024/01/25 05:02:14;;;;;;;4.70;0.90;;;8.80;95.20;;;7.18;69.53;100284.25;10227060;28;97400;-85
2024/01/25 05:07:18;;;;;;;3.27;1.20;;;8.80;95.20;;;7.17;69.59;100284.41;10225503;28;96567;-84
2024/01/25 05:12:31;;;;;;;10.37;1.60;;;8.80;95.20;;;7.20;69.52;100265.63;10221959;28;96963;-85
2024/01/25 05:17:35;;;;;;;13.27;1.47;;;8.80;95.20;;;7.23;69.07;100273.25;10201575;28;97956;-85
2024/01/25 05:22:40;;;;;;;3.17;0.90;;;8.80;95.10;;;7.26;68.79;100265.03;10204749;28;97246;-86
2024/01/25 05:27:43;;;;;;;3.43;0.70;;;8.90;94.90;;;7.31;68.25;100278.63;10226961;28;96455;-86
2024/01/25 05:32:48;;;;;;;5.73;1.23;;;8.90;94.80;;;7.34;68.14;100285.47;10207310;28;97005;-86
2024/01/25 05:37:53;;;;;;;8.53;1.50;;;9.00;94.70;;;7.25;68.61;100266.81;10209746;28;97137;-86
2024/01/25 05:42:56;;;;;;;6.73;1.40;;;8.90;94.90;;;7.25;68.86;100272.09;10224591;28;96916;-86
2024/01/25 05:48:01;;;;;;;7.80;1.03;;;8.90;94.90;;;7.20;69.32;100262.97;10209561;28;96612;-86
2024/01/25 05:53:05;;;;;;;5.57;0.70;;;8.80;95.30;;;7.19;69.97;100269.22;10208991;28;98013;-85
2024/01/25 05:58:08;;;;;;;5.13;1.10;;;8.80;95.30;;;7.17;70.77;100279.94;10227790;28;96572;-85
2024/01/25 06:03:12;;;;;;;9.57;1.03;;;8.90;95.70;;;7.11;72.46;100280.50;10250685;28;96596;-86
2024/01/25 06:08:15;;;;;;;5.57;1.40;;;8.80;96.10;;;7.14;73.10;100301.38;10228681;28;96736;-86
2024/01/25 06:13:18;;;;;;;7.87;1.57;;;8.80;96.30;;;7.15;73.25;100292.47;10221114;28;96539;-85
2024/01/25 06:18:22;;;;;;;7.73;1.83;;;8.80;96.40;;;7.10;74.39;100299.16;10247229;28;96532;-86
2024/01/25 06:23:27;;;;;;;7.43;1.93;;;8.80;96.70;;;7.11;74.34;100314.03;10217904;28;96561;-85
2024/01/25 06:28:30;;;;;;;9.53;1.97;;;8.80;96.70;;;7.07;74.44;100326.69;10245103;28;96993;-85
2024/01/25 06:33:34;;;;;;;12.97;2.37;;;8.70;96.70;;;7.02;74.41;100355.38;10205074;28;96471;-85
2024/01/25 06:38:38;;;;;;;10.00;1.97;;;8.70;96.70;;;6.97;74.59;100361.06;10215773;28;96525;-85
2024/01/25 06:43:41;;;;;;;4.20;1.23;;;8.60;96.80;;;6.94;74.95;100373.72;10227572;28;96736;-85
2024/01/25 06:48:45;;;;;;;4.50;1.10;;;8.60;97.00;;;6.88;75.04;100369.00;10247458;28;97637;-85
2024/01/25 06:53:48;;;;;;;10.23;1.47;;;8.60;96.80;;;6.80;75.70;100368.88;10230155;28;96518;-85
2024/01/25 06:58:52;;;;;;;6.30;1.50;;;8.50;96.90;;;6.72;76.11;100377.50;10195330;28;96536;-85
2024/01/25 07:03:57;;;;;;;4.50;1.23;;;8.40;97.00;;;6.80;75.40;100353.03;10226158;28;96875;-86
2024/01/25 07:09:01;;;;;;;5.67;1.43;;;8.40;96.90;;;6.93;74.68;100313.94;10244359;28;96622;-86
2024/01/25 07:14:06;;;;;;;7.83;1.67;;;8.50;96.70;;;7.35;71.99;100308.25;10216166;28;97095;-86
2024/01/25 07:19:10;;;;;;;10.20;1.87;;;8.60;96.50;;;7.73;68.74;100296.69;10233548;28;97517;-88
2024/01/25 07:24:14;;;;;;;6.13;1.53;;;8.80;95.90;;;7.99;67.20;100270.38;10212422;28;96556;-86
2024/01/25 07:29:17;;;;;;;10.33;1.27;;;9.00;95.40;;;8.22;64.98;100245.13;10209355;28;96589;-86
2024/01/25 07:34:21;;;;;;;5.73;1.30;;;9.20;94.80;;;8.37;63.60;100241.97;10191645;28;99548;-85
2024/01/25 07:39:24;;;;;;;6.43;1.10;;;9.30;94.50;;;8.47;62.70;100237.44;10212256;28;96596;-86
2024/01/25 07:44:28;;;;;;;8.80;1.67;;;9.50;94.10;;;8.53;62.51;100253.53;10248947;28;97038;-86
2024/01/25 07:49:31;;;;;;;4.50;1.10;;;9.50;94.00;;;8.59;61.96;100230.91;10240245;28;96452;-86
2024/01/25 07:54:35;;;;;;;7.40;1.43;;;9.60;93.70;;;8.80;60.95;100239.31;10208039;28;98608;-85
2024/01/25 07:59:38;;;;;;;12.23;1.47;;;9.60;93.50;;;8.77;60.57;100255.53;10228025;28;96720;-85
2024/01/25 08:04:43;;;;;;;8.67;1.50;;;9.60;93.40;;;8.71;59.84;100242.91;10227770;28;96582;-86
2024/01/25 08:09:47;;;;;;;6.53;1.37;;;9.70;92.80;;;8.82;59.06;100285.06;10236807;28;96649;-84
2024/01/25 08:14:51;;;;;;;5.43;1.03;;;9.80;92.30;;;9.04;58.92;100293.47;10226220;28;96883;-85
2024/01/25 08:19:55;;;;;;;4.53;1.20;;;9.90;92.50;;;9.19;57.95;100275.19;10212064;28;97720;-85
2024/01/25 08:24:58;;;;;;;4.07;0.90;;;10.10;92.00;;;9.22;57.41;100281.00;10224983;28;96635;-86
2024/01/25 08:30:03;;;;;;;5.00;0.90;;;10.20;91.90;;;9.34;57.62;100274.44;10227196;28;96457;-85
2024/01/25 08:35:07;;;;;;;4.40;1.20;;;10.30;91.60;;;9.53;57.10;100283.13;10226503;28;96439;-85
2024/01/25 08:40:11;;;;;;;6.53;1.33;;;10.50;91.50;;;9.74;56.96;100285.41;10226144;28;96514;-85
2024/01/25 08:45:16;;;;;;;8.43;1.30;;;10.70;91.70;;;9.90;56.92;100290.75;10226264;28;96505;-85
2024/01/25 08:50:19;;;;;;;8.77;1.70;;;10.90;91.60;;;9.97;55.92;100290.94;10206300;28;96572;-85
2024/01/25 08:55:25;;;;;;;9.13;2.00;;;11.00;91.10;;;10.02;56.79;100315.19;10215971;28;96582;-85
2024/01/25 09:00:29;;;;;;;7.67;1.20;;;11.10;91.30;;;10.16;55.45;100327.84;10242845;28;96656;-87
2024/01/25 09:05:34;;;;;;;8.97;1.60;;;11.30;90.70;;;10.20;55.43;100302.63;10212229;28;96469;-85
2024/01/25 09:10:39;;;;;;;7.97;1.40;;;11.30;90.40;;;10.17;55.67;100309.06;10213735;28;96766;-85
2024/01/25 09:15:46;;;;;;;5.33;1.63;;;11.40;90.20;;;10.09;55.48;100314.38;10228572;28;97563;-87
2024/01/25 09:20:51;;;;;;;5.53;1.20;;;11.40;90.10;;;9.96;56.04;100332.59;10225525;28;96550;-86
2024/01/25 09:25:55;;;;;;;6.10;1.13;;;11.30;90.00;;;9.85;56.08;100331.06;10214027;28;97623;-87
2024/01/25 09:30:58;;;;;;;10.33;1.27;;;11.30;89.70;;;9.99;56.18;100352.66;10225555;28;96535;-87
2024/01/25 09:36:03;;;;;;;5.55;1.60;;;11.50;89.80;;;10.17;55.80;100334.81;10211196;28;96484;-87
2024/01/25 09:41:08;;;;;;;5.20;1.40;;;11.70;89.30;;;10.31;54.90;100357.28;10240677;28;96596;-83
2024/01/25 09:46:15;;;;;;;7.18;1.33;;;11.80;88.90;;;10.44;55.11;100347.03;10240856;28;96875;-86
2024/01/25 09:51:19;;;;;;;6.75;1.15;;;11.90;88.90;;;10.63;54.45;100343.25;10210541;28;96966;-86
2024/01/25 09:56:23;;;;;;;5.45;1.20;;;12.10;88.20;;;10.72;53.52;100351.03;10207937;28;96662;-87
2024/01/25 10:01:27;;;;;;;8.95;1.67;;;12.20;85.70;;;10.65;53.60;100349.22;10223232;28;96643;-86
2024/01/25 10:06:31;;;;;;;6.67;1.60;;;12.10;85.90;;;10.60;53.57;100341.72;10224215;28;96631;-86
2024/01/25 10:11:37;;;;;;;8.10;1.70;;;11.90;86.60;;;10.22;54.16;100360.88;10210208;28;96571;-85
2024/01/25 10:16:47;;;;;;;6.40;1.50;;;11.70;86.50;;;9.89;54.55;100355.44;10208765;28;96482;-86
2024/01/25 10:21:51;;;;;;;6.77;1.70;;;11.40;86.70;;;9.67;56.10;100332.97;10209806;28;96952;-86
2024/01/25 10:26:55;;;;;;;6.43;1.77;;;11.20;88.60;;;9.91;55.53;100337.56;10224158;28;96509;-85
2024/01/25 10:31:58;;;;;;;6.90;1.67;;;11.50;87.30;;;10.07;54.90;100305.72;10209587;28;96709;-84
2024/01/25 10:37:07;;;;;;;4.80;1.00;;;11.70;86.20;;;10.35;54.13;100321.44;10224251;28;96696;-85
2024/01/25 10:42:12;;;;;;;6.72;1.50;;;12.00;85.50;;;10.56;53.22;100323.63;10209755;28;96593;-85
2024/01/25 10:47:15;;;;;;;9.30;1.70;;;12.20;84.00;;;10.53;52.69;100321.28;10224490;28;96919;-85
2024/01/25 10:52:20;;;;;;;8.38;1.38;;;12.10;83.60;;;10.43;53.27;100313.47;10208524;28;96553;-85
2024/01/25 10:57:23;;;;;;;3.78;1.58;;;12.10;84.40;;;10.51;51.47;100305.53;10204438;28;98030;-84
2024/01/25 11:02:28;;;;;;;8.02;1.55;;;12.10;82.00;;;10.54;52.28;100330.91;10213692;28;96975;-83
2024/01/25 11:07:50;;;;;;;3.53;0.90;;;12.10;82.70;;;10.56;51.49;100320.97;10214256;28;96615;-83
2024/01/25 11:13:00;;;;;;;5.13;1.13;;;12.20;81.30;;;10.36;51.34;100331.88;10216473;28;98041;-84
2024/01/25 11:18:08;;;;;;;5.50;1.35;;;12.00;81.00;;;10.34;51.06;100306.50;10215914;28;96568;-84
2024/01/25 11:23:16;;;;;;;6.97;1.30;;;12.00;80.80;;;10.35;51.28;100326.75;10228708;28;96687;-84
2024/01/25 11:28:19;;;;;;;8.63;1.40;;;12.00;81.00;;;10.16;51.60;100327.84;10228177;28;96778;-86
2024/01/25 11:33:23;;;;;;;5.23;1.27;;;11.70;81.10;;;9.95;52.58;100325.59;10245179;28;96640;-84
2024/01/25 11:38:28;;;;;;;7.73;1.97;;;11.50;82.20;;;9.78;53.33;100313.28;10231227;28;96944;-84
2024/01/25 11:43:32;;;;;;;11.10;2.20;;;11.30;83.20;;;9.57;54.32;100340.19;10240131;28;96837;-85
2024/01/25 11:48:41;;;;;;;8.53;2.13;;;11.00;83.90;;;9.35;54.39;100315.03;10222277;28;96582;-85
2024/01/25 11:53:46;;;;;;;8.00;1.53;;;10.90;83.90;;;9.19;54.92;100307.00;10212497;28;97545;-84
2024/01/25 11:58:50;;;;;;;5.93;1.37;;;10.70;84.10;;;9.09;54.97;100317.69;10213895;28;97092;-83
2024/01/25 12:03:54;;;;;;;5.97;1.30;;;10.60;84.40;;;9.08;54.91;100324.81;10242565;28;96590;-85
2024/01/25 12:09:10;;;;;;;7.33;2.47;;;10.60;84.20;;;9.00;54.37;100302.75;10209120;28;97702;-84
2024/01/25 12:14:16;;;;;;;4.87;1.50;;;10.60;83.80;;;9.02;53.87;100311.38;10207459;28;96704;-85
2024/01/25 12:19:20;;;;;;;9.00;1.80;;;10.50;83.00;;;8.99;54.17;100320.44;10236524;28;96930;-84
2024/01/25 12:24:24;;;;;;;6.53;1.27;;;10.50;83.50;;;8.95;54.21;100321.75;10212562;28;96562;-84
2024/01/25 12:29:27;;;;;;;6.67;1.33;;;10.50;82.90;;;8.90;53.94;100297.53;10211597;28;96541;-84
2024/01/25 12:34:31;;;;;;;8.93;1.27;;;10.50;82.90;;;8.96;53.60;100307.50;10211413;28;96559;-85
2024/01/25 12:39:39;;;;;;;9.23;1.07;;;10.50;82.50;;;8.97;52.71;100330.38;10211369;28;96591;-84
2024/01/25 12:44:43;;;;;;;6.87;0.80;;;10.50;81.40;;;8.98;52.08;100257.81;10218969;28;96444;-83
2024/01/25 12:49:47;;;;;;;7.60;1.00;;;10.50;80.80;;;9.00;52.48;100281.53;10211953;28;96554;-84
2024/01/25 12:54:51;;;;;;;6.53;1.20;;;10.50;81.20;;;8.98;52.44;100275.53;10241850;28;96659;-85
2024/01/25 12:59:56;;;;;;;6.27;1.03;;;10.50;81.10;;;8.93;52.41;100246.00;10237628;28;97047;-84
2024/01/25 13:05:01;;;;;;;4.30;1.60;;;10.50;80.70;;;8.89;51.64;100287.91;10229212;28;96699;-84
2024/01/25 13:10:06;;;;;;;9.27;1.43;;;10.40;80.00;;;8.85;52.18;100290.03;10211863;28;97482;-83
2024/01/25 13:15:09;;;;;;;11.90;3.37;;;10.40;80.60;;;8.82;53.08;100285.06;10211283;28;96588;-84
2024/01/25 13:20:13;;;;;;;14.00;3.20;;;10.40;81.40;;;8.78;53.87;100267.78;10211584;28;96539;-84
2024/01/25 13:25:16;;;;;;;7.37;1.50;;;10.30;82.30;;;8.70;54.22;100273.03;10202007;28;96642;-84
2024/01/25 13:30:20;;;;;;;4.43;1.13;;;10.30;82.80;;;8.62;54.31;100265.00;10195387;28;96933;-84
2024/01/25 13:35:23;;;;;;;6.03;1.13;;;10.20;82.70;;;8.58;53.79;100258.38;10191058;28;98144;-84
2024/01/25 13:40:27;;;;;;;6.50;1.27;;;10.10;81.90;;;8.54;54.13;100262.31;10211486;28;96675;-84
2024/01/25 13:45:31;;;;;;;7.30;1.47;;;10.10;82.50;;;8.54;53.96;100291.44;10224029;28;97973;-84
2024/01/25 13:50:34;;;;;;;3.47;0.83;;;10.10;82.30;;;8.46;54.22;100262.25;10225823;28;96543;-84
2024/01/25 13:55:39;;;;;;;7.37;1.67;;;10.00;82.30;;;8.41;54.85;100283.06;10209964;28;97674;-84
2024/01/25 14:00:43;;;;;;;5.73;1.30;;;9.90;83.10;;;8.32;54.56;100258.28;10207641;28;96530;-84
2024/01/25 14:05:47;;;;;;;5.83;1.20;;;9.90;82.70;;;8.27;54.63;100253.41;10210886;28;96488;-84
2024/01/25 14:10:51;;;;;;;8.03;1.47;;;9.80;82.90;;;8.18;55.40;100259.63;10209170;28;96569;-84
2024/01/25 14:15:55;;;;;;;8.30;1.43;;;9.80;83.40;;;8.12;54.74;100235.59;10241302;28;97649;-84
2024/01/25 14:20:59;;;;;;;10.03;1.83;;;9.70;82.60;;;8.03;55.08;100261.97;10207702;28;96515;-84
2024/01/25 14:26:03;;;;;;;7.73;1.53;;;9.60;83.00;;;8.03;55.29;100275.19;10224171;28;96692;-85
2024/01/25 14:31:06;;;;;;;5.27;1.47;;;9.60;83.30;;;7.97;55.69;100270.50;10217138;28;98070;-84
2024/01/25 14:36:13;;;;;;;6.13;1.67;;;9.60;83.60;;;7.92;56.08;100290.47;10218151;28;96620;-86
2024/01/25 14:41:17;;;;;;;5.33;1.53;;;9.50;84.00;;;7.85;56.20;100316.66;10243698;28;96545;-84
2024/01/25 14:46:20;;;;;;;4.50;1.80;;;9.50;84.20;;;7.81;55.83;100306.56;10216566;28;96536;-85
2024/01/25 14:51:24;;;;;;;5.27;1.07;;;9.40;83.60;;;7.76;56.01;100310.47;10230416;28;96777;-84
2024/01/25 14:56:28;;;;;;;9.03;1.97;;;9.30;83.80;;;7.71;56.24;100320.63;10231354;28;96457;-84
2024/01/25 15:01:31;;;;;;;5.10;1.37;;;9.30;84.10;;;7.66;56.31;100343.22;10215515;28;96436;-84
2024/01/25 15:06:35;;;;;;;4.00;1.23;;;9.30;84.10;;;7.64;55.82;100335.44;10230551;28;97765;-85
2024/01/25 15:11:38;;;;;;;7.73;1.70;;;9.20;83.50;;;7.64;56.14;100334.59;10220878;28;97860;-84
2024/01/25 15:16:42;;;;;;;5.93;1.20;;;9.20;83.70;;;7.60;56.11;100335.88;10176776;28;96371;-85
2024/01/25 15:21:45;;;;;;;9.40;1.33;;;9.20;83.70;;;7.57;55.92;100365.25;10199362;28;96531;-86
2024/01/25 15:26:49;;;;;;;4.83;1.40;;;9.20;83.30;;;7.58;56.37;100351.88;10213222;28;96523;-84
2024/01/25 15:31:53;;;;;;;6.57;1.80;;;9.10;83.90;;;7.54;56.72;100369.00;10213947;28;96721;-84
2024/01/25 15:36:56;;;;;;;3.43;1.40;;;9.10;84.30;;;7.51;56.75;100362.22;10213833;28;96820;-84
2024/01/25 15:42:00;;;;;;;7.40;1.10;;;9.10;84.50;;;7.50;56.59;100376.41;10222231;28;97388;-85
2024/01/25 15:47:03;;;;;;;6.53;1.53;;;9.10;84.20;;;7.45;57.51;100364.59;10214041;28;96899;-84
2024/01/25 15:52:07;;;;;;;4.53;1.37;;;9.10;85.00;;;7.44;57.62;100376.16;10211016;28;96718;-84
2024/01/25 15:57:10;;;;;;;5.00;1.20;;;9.00;85.00;;;7.41;57.36;100374.63;10192514;28;96572;-85
2024/01/25 16:02:15;;;;;;;8.97;2.07;;;9.00;84.80;;;7.42;57.56;100380.72;10244223;28;96530;-84
2024/01/25 16:07:18;;;;;;;8.57;1.43;;;9.00;85.20;;;7.36;58.05;100374.19;10218310;28;96590;-84
2024/01/25 16:12:23;;;;;;;6.80;1.50;;;9.00;85.60;;;7.34;58.26;100385.91;10212680;28;96558;-83
2024/01/25 16:17:27;;;;;;;6.27;1.50;;;8.90;85.50;;;7.32;58.20;100390.53;10179172;28;96596;-83
2024/01/25 16:22:31;;;;;;;11.67;1.60;;;8.90;85.50;;;7.27;58.45;100400.69;10214157;28;97697;-84
2024/01/25 16:27:34;;;;;;;4.33;1.20;;;8.90;85.60;;;7.21;58.23;100392.34;10206159;28;96549;-84
2024/01/25 16:32:39;;;;;;;6.13;1.10;;;8.80;85.50;;;7.24;57.76;100386.75;10212218;28;96836;-85
2024/01/25 16:37:42;;;;;;;6.70;1.00;;;8.80;85.20;;;7.25;57.66;100398.97;10212734;28;96687;-86
2024/01/25 16:42:46;;;;;;;5.70;2.40;;;8.80;85.10;;;7.23;58.00;100394.81;10257246;28;96569;-85
2024/01/25 16:47:50;;;;;;;4.13;1.47;;;8.80;85.30;;;7.18;58.01;100395.25;10215577;28;96629;-85
2024/01/25 16:52:56;;;;;;;5.30;1.30;;;8.80;85.50;;;7.16;58.66;100384.00;10225002;28;96653;-84
2024/01/25 16:58:00;;;;;;;5.53;1.37;;;8.70;85.80;;;7.12;58.90;100398.44;10223800;28;96457;-85
2024/01/25 17:03:04;;;;;;;3.97;0.93;;;8.70;86.10;;;7.08;58.93;100418.22;10247359;28;97813;-85
2024/01/25 17:08:07;;;;;;;7.80;1.67;;;8.70;86.30;;;7.05;59.15;100392.06;10210535;28;96673;-85
2024/01/25 17:13:11;;;;;;;7.27;1.40;;;8.70;86.40;;;7.05;59.35;100399.16;10210840;28;96825;-85
2024/01/25 17:18:16;;;;;;;7.50;2.40;;;8.60;86.40;;;6.96;59.67;100404.31;10211332;28;96463;-84
2024/01/25 17:23:20;;;;;;;6.57;1.63;;;8.60;86.80;;;6.93;60.21;100411.69;10204261;28;96525;-84
2024/01/25 17:28:23;;;;;;;11.53;1.67;;;8.50;87.20;;;6.91;60.34;100432.13;10209893;28;96520;-85
2024/01/25 17:33:26;;;;;;;4.43;1.57;;;8.50;87.40;;;6.85;60.30;100422.94;10208907;28;97934;-84
2024/01/25 17:38:30;;;;;;;8.43;1.90;;;8.50;87.30;;;6.84;60.33;100415.16;10211880;28;96609;-83
2024/01/25 17:43:34;;;;;;;13.60;3.27;;;8.50;87.30;;;6.85;60.26;100435.31;10208838;28;96534;-84
2024/01/25 17:48:38;;;;;;;9.13;2.63;;;8.40;87.50;;;6.88;60.59;100417.38;10225196;28;96417;-85
2024/01/25 17:53:42;;;;;;;12.20;3.60;;;8.50;87.50;;;6.87;60.87;100414.88;10210458;28;96561;-84
2024/01/25 17:58:45;;;;;;;7.23;2.20;;;8.50;88.10;;;6.81;61.10;100418.06;10210311;28;96576;-84
2024/01/25 18:03:49;;;;;;;7.13;1.90;;;8.40;87.80;;;6.78;61.28;100427.13;10198500;28;98177;-84
2024/01/25 18:08:52;;;;;;;6.73;1.90;;;8.40;88.10;;;6.78;61.63;100423.63;10189021;28;97088;-84
2024/01/25 18:13:56;;;;;;;5.80;1.87;;;8.40;88.20;;;6.73;61.88;100416.13;10214961;28;97028;-83
2024/01/25 18:18:59;;;;;;;5.60;1.30;;;8.30;88.50;;;6.70;62.20;100437.50;10218099;28;96524;-83
2024/01/25 18:24:03;;;;;;;7.60;1.70;;;8.30;89.30;;;6.64;62.57;100430.13;10223831;28;96712;-84
2024/01/25 18:29:07;;;;;;;3.67;1.30;;;8.30;88.90;;;6.69;62.13;100436.69;10243350;28;96518;-83
2024/01/25 18:34:10;;;;;;;4.20;1.50;;;8.30;88.90;;;6.68;62.00;100415.69;10216090;28;96404;-83
2024/01/25 18:39:17;;;;;;;5.63;1.30;;;8.30;88.90;;;6.67;62.46;100441.28;10230597;28;96540;-84
2024/01/25 18:44:25;;;;;;;7.50;1.53;;;8.30;89.10;;;6.62;62.07;100430.28;10217258;28;97275;-84
2024/01/25 18:49:28;;;;;;;4.93;1.17;;;8.30;89.10;;;6.64;62.35;100432.78;10230995;28;96499;-83
2024/01/25 18:54:33;;;;;;;5.03;1.37;;;8.30;89.10;;;6.62;62.79;100438.22;10230295;28;96650;-84
2024/01/25 18:59:37;;;;;;;7.87;1.80;;;8.30;89.30;;;6.57;62.77;100450.16;10245394;28;96797;-83
2024/01/25 19:04:41;;;;;;;6.70;1.53;;;8.20;89.40;;;6.53;63.01;100460.13;10236672;28;96563;-83
2024/01/25 19:09:45;;;;;;;4.07;1.50;;;8.20;89.50;;;6.52;62.75;100473.47;10214787;28;96547;-83
2024/01/25 19:14:49;;;;;;;7.33;1.40;;;8.10;89.30;;;6.53;62.53;100483.06;10228544;28;97148;-84
2024/01/25 19:19:52;;;;;;;5.33;1.40;;;8.10;89.20;;;6.55;62.50;100500.47;10220138;28;96602;-84
2024/01/25 19:24:56;;;;;;;4.20;1.37;;;8.10;89.20;;;6.49;62.65;100516.84;10241304;28;96815;-84
2024/01/25 19:29:59;;;;;;;7.90;2.00;;;8.10;89.20;;;6.44;62.59;100521.69;10241762;28;96484;-83
2024/01/25 19:35:05;;;;;;;6.50;1.50;;;8.00;89.10;;;6.41;62.78;100511.38;10235976;28;96548;-83
2024/01/25 19:40:09;;;;;;;5.43;1.40;;;8.00;89.10;;;6.36;62.85;100540.00;10223573;28;96589;-84
2024/01/25 19:45:13;;;;;;;5.33;1.30;;;8.00;89.20;;;6.31;63.18;100515.78;10212815;28;98414;-83
2024/01/25 19:50:17;;;;;;;6.20;1.80;;;7.90;89.40;;;6.30;63.55;100527.31;10250394;28;96405;-83
2024/01/25 19:55:20;;;;;;;6.33;1.93;;;7.90;89.70;;;6.21;64.13;100546.56;10230651;28;96405;-83
2024/01/25 20:00:24;;;;;;;3.57;1.23;;;7.90;90.20;;;6.20;64.11;100558.94;10230798;28;96570;-83
2024/01/25 20:05:28;;;;;;;3.90;1.00;;;7.90;90.00;;;6.18;64.08;100582.00;10228574;28;97217;-83
2024/01/25 20:10:32;;;;;;;10.70;1.53;;;7.80;90.00;;;6.12;64.29;100575.44;10229646;28;96659;-83
2024/01/25 20:15:35;;;;;;;4.87;1.50;;;7.80;90.20;;;6.05;64.50;100587.44;10227839;28;96674;-83
2024/01/25 20:20:39;;;;;;;5.00;1.00;;;7.80;90.40;;;6.05;64.92;100587.44;10235983;28;96591;-83
2024/01/25 20:25:51;;;;;;;4.60;1.47;;;7.80;90.30;;;6.04;65.33;100593.69;10211270;28;97490;-83
2024/01/25 20:30:54;;;;;;;5.17;1.10;;;7.70;90.40;;;6.09;65.33;100594.16;10217493;28;97509;-84
2024/01/25 20:35:58;;;;;;;5.17;1.00;;;7.70;90.40;;;6.06;65.63;100589.13;10216751;28;96551;-84
2024/01/25 20:41:01;;;;;;;6.07;1.17;;;7.70;90.50;;;6.10;65.33;100579.16;10234897;28;96719;-84
2024/01/25 20:46:05;;;;;;;3.90;0.80;;;7.80;90.60;;;6.11;65.33;100594.00;10225855;28;96553;-83
2024/01/25 20:51:09;;;;;;;3.50;1.03;;;7.80;90.50;;;6.10;65.51;100593.16;10216020;28;96620;-85
2024/01/25 20:56:22;;;;;;;14.17;5.53;;;7.80;90.70;;;6.07;65.62;100617.19;10677744;27;96442;-82
2024/01/25 21:01:26;;;;;;;6.83;3.10;;;7.80;90.70;;;6.02;66.23;100626.47;10587846;27;98100;-83
2024/01/25 21:06:30;;;;;;;5.93;1.23;;;7.70;90.80;;;6.02;66.56;100615.91;10567335;27;96621;-83
2024/01/25 21:11:34;;;;;;;7.53;2.40;;;7.70;90.90;;;6.00;66.53;100608.13;10589093;27;96945;-83